Terminal Aerodrome Forecast
Issued by NWS

Home | Current Version | Previous Version | Graphics & Text | Print | Product List | Glossary Off
Versions: 1 2 3 4 5 6 7 8 9 10 11 12 13 14

000
FTUS41 KCLE 232135 AAA
TAFFDY
TAF AMD
KFDY 232135Z 2322/2418 22015G25KT P6SM -RA OVC040
      TEMPO 2322/2402 BKN025
     FM240200 24018G30KT 6SM -RA OVC015
     FM240600 23014KT P6SM -SHRA BKN035
     FM241200 21010KT P6SM -SHRA OVC015
     FM241500 22015G25KT P6SM BKN025=

USA.gov is the U.S. government's official web portal to all federal, state and local government web resources and services.